Time;durP1;ratioP1;P1;durP2;ratioP2;P2;SDS_P1;SDS_P2;PMS_P1;PMS_P2;Temp;Humidity;BMP_temperature;BMP_pressure;BME280_temperature;BME280_humidity;BME280_pressure;Samples;Min_cycle;Max_cycle;Signal;HPM_P1;HPM_P2
2023/09/01 00:00:03;;;;;;;8.63;5.05;;;15.10;81.50;;;;;;7395461;19;20018;-72
2023/09/01 00:02:33;;;;;;;8.40;5.05;;;15.10;82.80;;;;;;7399143;19;20034;-72
2023/09/01 00:05:03;;;;;;;9.10;5.20;;;15.20;87.90;;;;;;7398710;19;20014;-71
2023/09/01 00:07:36;;;;;;;11.15;5.22;;;15.20;86.70;;;;;;7397826;19;20025;-71
2023/09/01 00:10:06;;;;;;;10.55;5.18;;;15.20;85.50;;;;;;7397815;19;20018;-72
2023/09/01 00:12:36;;;;;;;12.00;5.32;;;15.20;88.50;;;;;;7399144;19;20035;-71
2023/09/01 00:15:09;;;;;;;8.40;5.10;;;15.20;89.40;;;;;;7396671;19;20006;-70
2023/09/01 00:17:42;;;;;;;7.82;4.93;;;15.20;82.10;;;;;;7397482;19;20377;-70
2023/09/01 00:20:13;;;;;;;8.63;4.80;;;15.20;77.60;;;;;;7399287;19;20018;-71
2023/09/01 00:22:45;;;;;;;8.60;4.50;;;15.20;73.60;;;;;;7397208;19;20022;-70
2023/09/01 00:25:15;;;;;;;8.02;5.10;;;15.30;75.90;;;;;;7401697;19;20021;-72
2023/09/01 00:27:49;;;;;;;11.73;5.15;;;15.30;72.10;;;;;;7402910;19;20017;-72
2023/09/01 00:30:19;;;;;;;8.80;5.25;;;15.30;61.80;;;;;;7405308;19;20031;-70
2023/09/01 00:32:55;;;;;;;10.32;4.85;;;15.40;61.10;;;;;;7420653;19;20002;-70
2023/09/01 00:35:28;;;;;;;8.15;4.63;;;15.30;62.30;;;;;;7417165;19;20059;-71
2023/09/01 00:38:01;;;;;;;7.95;4.88;;;15.40;67.40;;;;;;7413463;19;20031;-69
2023/09/01 00:40:34;;;;;;;8.93;4.17;;;15.40;78.70;;;;;;7398833;19;20006;-71
2023/09/01 00:43:10;;;;;;;7.90;4.68;;;15.40;84.50;;;;;;7397896;19;20062;-71
2023/09/01 00:45:48;;;;;;;8.23;4.55;;;15.40;82.60;;;;;;7396614;19;20006;-71
2023/09/01 00:48:22;;;;;;;9.30;4.20;;;15.40;79.90;;;;;;7398497;19;20579;-72
2023/09/01 00:50:53;;;;;;;8.50;4.10;;;15.40;75.80;;;;;;7396488;19;20018;-71
2023/09/01 00:53:35;;;;;;;9.50;4.03;;;15.40;75.00;;;;;;7397940;19;20669;-69
2023/09/01 00:56:06;;;;;;;8.02;3.95;;;15.50;76.80;;;;;;7397954;19;20010;-71
2023/09/01 00:58:37;;;;;;;6.10;3.78;;;15.40;71.00;;;;;;7395010;19;20006;-70
2023/09/01 01:01:07;;;;;;;7.05;3.85;;;15.50;62.70;;;;;;7395995;19;20006;-70
2023/09/01 01:03:38;;;;;;;6.57;3.22;;;15.50;57.70;;;;;;7395486;19;20002;-71
2023/09/01 01:06:27;;;;;;;9.05;3.13;;;15.50;51.50;;;;;;7394861;19;20011;-71
2023/09/01 01:09:11;;;;;;;4.68;3.35;;;15.50;54.10;;;;;;7396989;19;20030;-70
2023/09/01 01:11:48;;;;;;;5.75;3.55;;;15.60;60.80;;;;;;7395101;19;20089;-71
2023/09/01 01:14:32;;;;;;;8.02;3.45;;;15.60;56.70;;;;;;7396387;19;20030;-71
2023/09/01 01:17:06;;;;;;;6.05;3.65;;;15.60;47.00;;;;;;7396251;19;20018;-71
2023/09/01 01:19:43;;;;;;;;;;;15.60;39.50;;;;;;7395610;19;20097;-70
2023/09/01 01:22:16;;;;;;;8.80;3.65;;;15.60;43.20;;;;;;7396189;19;19914;-72
2023/09/01 01:24:50;;;;;;;7.65;3.22;;;15.70;40.70;;;;;;7395006;19;20081;-71
2023/09/01 01:27:23;;;;;;;6.00;3.10;;;15.60;36.80;;;;;;7394768;19;20489;-70
2023/09/01 01:29:56;;;;;;;8.30;3.08;;;15.60;28.10;;;;;;7394050;19;20036;-71
2023/09/01 01:32:27;;;;;;;3.42;2.50;;;15.70;29.80;;;;;;7396181;19;20014;-70
2023/09/01 01:35:07;;;;;;;5.00;2.75;;;15.70;23.50;;;;;;7395511;19;20014;-71
2023/09/01 01:37:48;;;;;;;4.53;2.30;;;15.80;24.20;;;;;;7395051;19;20014;-71
2023/09/01 01:40:23;;;;;;;5.57;2.72;;;15.80;17.80;;;;;;7395546;19;20093;-72
2023/09/01 01:43:01;;;;;;;6.35;2.83;;;15.80;18.10;;;;;;7395523;19;20022;-72
2023/09/01 01:45:43;;;;;;;4.07;1.98;;;15.80;13.70;;;;;;7393427;19;20673;-71
2023/09/01 01:48:13;;;;;;;4.55;2.22;;;15.80;15.70;;;;;;7394928;19;20017;-70
2023/09/01 01:50:43;;;;;;;4.60;2.40;;;15.80;19.40;;;;;;7394610;19;20013;-69
2023/09/01 01:53:14;;;;;;;5.07;2.10;;;15.80;14.10;;;;;;7395918;19;20010;-72
2023/09/01 01:55:46;;;;;;;5.80;2.60;;;15.80;14.30;;;;;;7392146;19;20341;-72
2023/09/01 01:58:16;;;;;;;7.53;2.70;;;15.90;14.60;;;;;;7389716;19;20019;-71
2023/09/01 02:00:46;;;;;;;5.68;2.10;;;15.90;14.70;;;;;;7391413;19;20014;-71
2023/09/01 02:03:16;;;;;;;3.83;2.20;;;15.90;12.20;;;;;;7395091;19;20081;-70
2023/09/01 02:05:46;;;;;;;6.30;2.50;;;15.90;14.20;;;;;;7391438;19;20234;-71
2023/09/01 02:08:20;;;;;;;8.27;2.60;;;15.90;15.20;;;;;;7391183;19;20082;-71
2023/09/01 02:10:53;;;;;;;8.52;3.20;;;15.90;13.70;;;;;;7389975;19;20010;-71
2023/09/01 02:13:23;;;;;;;3.10;2.28;;;15.90;13.60;;;;;;7390705;19;20022;-70
2023/09/01 02:15:53;;;;;;;10.82;2.45;;;16.00;12.70;;;;;;7389764;19;20073;-72
2023/09/01 02:18:24;;;;;;;5.97;2.40;;;16.00;15.60;;;;;;7389348;19;20014;-72
2023/09/01 02:20:54;;;;;;;7.57;2.20;;;16.00;17.90;;;;;;7388082;19;20031;-72
2023/09/01 02:23:24;;;;;;;5.30;2.60;;;16.00;20.30;;;;;;7389901;19;20425;-71
2023/09/01 02:25:57;;;;;;;3.33;2.40;;;16.00;21.30;;;;;;7390624;19;20466;-71
2023/09/01 02:28:27;;;;;;;3.58;2.15;;;16.00;21.70;;;;;;7390568;19;20026;-71
2023/09/01 02:30:57;;;;;;;3.40;2.38;;;16.00;21.50;;;;;;7388083;19;20038;-70
2023/09/01 02:33:27;;;;;;;3.42;2.10;;;16.00;18.30;;;;;;7390025;19;20010;-70
2023/09/01 02:36:28;;;;;;;5.18;2.20;;;16.10;20.00;;;;;;7388418;19;20101;-73
2023/09/01 02:38:59;;;;;;;8.35;3.03;;;16.10;19.80;;;;;;7389106;19;20018;-71
2023/09/01 02:41:29;;;;;;;4.18;2.08;;;16.10;16.70;;;;;;7388702;19;20022;-73
2023/09/01 02:43:59;;;;;;;4.28;2.13;;;16.10;18.10;;;;;;7389874;19;20359;-71
2023/09/01 02:46:29;;;;;;;3.90;1.98;;;16.10;19.50;;;;;;7391905;19;20051;-72
2023/09/01 02:48:59;;;;;;;5.22;1.80;;;16.10;18.40;;;;;;7389991;19;20011;-71
2023/09/01 02:51:32;;;;;;;3.50;1.95;;;16.20;18.20;;;;;;7388415;19;20028;-71
2023/09/01 02:54:04;;;;;;;7.78;2.03;;;16.10;16.80;;;;;;7389515;19;20022;-71
2023/09/01 02:56:34;;;;;;;3.97;2.10;;;16.20;18.80;;;;;;7389457;19;20022;-71
2023/09/01 02:59:04;;;;;;;2.95;1.67;;;16.20;16.40;;;;;;7388502;19;20018;-71
2023/09/01 03:01:34;;;;;;;4.00;1.70;;;16.20;16.20;;;;;;7388216;19;20015;-70
2023/09/01 03:04:06;;;;;;;6.05;1.75;;;16.20;15.90;;;;;;7389745;19;20026;-70
2023/09/01 03:06:39;;;;;;;3.80;1.80;;;16.20;15.60;;;;;;7389217;19;20014;-70
2023/09/01 03:09:10;;;;;;;2.28;1.67;;;16.20;12.80;;;;;;7388864;19;20363;-70
2023/09/01 03:11:40;;;;;;;3.10;1.65;;;16.30;11.60;;;;;;7387757;19;20011;-72
2023/09/01 03:14:10;;;;;;;3.67;2.03;;;16.30;10.40;;;;;;7387181;19;20022;-70
2023/09/01 03:16:40;;;;;;;2.30;1.90;;;16.30;11.70;;;;;;7389126;19;20018;-70
2023/09/01 03:19:10;;;;;;;4.68;2.00;;;16.40;11.30;;;;;;7387617;19;20030;-70
2023/09/01 03:21:42;;;;;;;2.97;1.67;;;16.30;9.70;;;;;;7387101;19;20516;-72
2023/09/01 03:24:12;;;;;;;1.88;1.38;;;16.30;10.70;;;;;;7388912;19;20074;-72
2023/09/01 03:26:42;;;;;;;4.97;2.22;;;16.30;11.20;;;;;;7388504;19;20019;-70
2023/09/01 03:29:12;;;;;;;4.15;1.77;;;16.30;13.30;;;;;;7393827;19;20074;-71
2023/09/01 03:31:43;;;;;;;2.35;1.48;;;16.30;14.90;;;;;;7393919;19;20010;-71
2023/09/01 03:34:13;;;;;;;7.35;1.77;;;16.40;12.60;;;;;;7395827;19;20028;-71
2023/09/01 03:36:53;;;;;;;2.58;1.88;;;16.40;11.50;;;;;;7396263;19;20014;-70
2023/09/01 03:39:23;;;;;;;4.15;2.00;;;16.40;11.00;;;;;;7394227;19;20023;-70
2023/09/01 03:41:53;;;;;;;5.45;2.00;;;16.40;10.20;;;;;;7393064;19;20039;-70
2023/09/01 03:44:23;;;;;;;3.05;1.80;;;16.40;11.80;;;;;;7393666;19;20778;-71
2023/09/01 03:46:54;;;;;;;3.70;1.90;;;16.40;11.50;;;;;;7396348;19;20428;-70
2023/09/01 03:49:26;;;;;;;3.63;1.80;;;16.40;12.80;;;;;;7395697;19;20460;-71
2023/09/01 03:51:59;;;;;;;2.63;1.63;;;16.40;12.20;;;;;;7393114;19;20028;-70
2023/09/01 03:54:29;;;;;;;2.17;1.70;;;16.30;14.70;;;;;;7395271;19;20015;-70
2023/09/01 03:56:59;;;;;;;4.18;1.80;;;16.20;16.60;;;;;;7395267;19;20408;-71
2023/09/01 03:59:28;;;;;;;2.75;1.63;;;16.20;19.00;;;;;;7391964;19;20078;-71
2023/09/01 04:01:59;;;;;;;3.22;1.88;;;16.20;18.60;;;;;;7392858;19;20347;-71
2023/09/01 04:04:29;;;;;;;2.65;1.70;;;16.20;18.90;;;;;;7395066;19;20018;-71
2023/09/01 04:07:02;;;;;;;3.22;1.58;;;16.10;18.80;;;;;;7395159;19;20023;-71
2023/09/01 04:09:32;;;;;;;2.75;1.67;;;16.10;19.70;;;;;;7394467;19;20058;-70
2023/09/01 04:12:03;;;;;;;3.97;1.60;;;16.10;20.20;;;;;;7393511;19;20019;-71
2023/09/01 04:14:33;;;;;;;4.45;1.88;;;16.00;21.80;;;;;;7394688;19;20074;-70
2023/09/01 04:17:04;;;;;;;2.97;1.67;;;16.10;20.80;;;;;;7395894;19;20042;-70
2023/09/01 04:19:34;;;;;;;2.67;1.70;;;16.10;19.50;;;;;;7391552;19;20018;-71
2023/09/01 04:22:07;;;;;;;4.07;1.80;;;16.10;18.90;;;;;;7394473;19;20027;-71
2023/09/01 04:24:37;;;;;;;3.85;1.80;;;16.10;19.70;;;;;;7394047;19;20022;-71
2023/09/01 04:27:07;;;;;;;4.32;2.15;;;16.10;20.30;;;;;;7394870;19;20035;-72
2023/09/01 04:29:38;;;;;;;2.63;1.70;;;16.10;19.80;;;;;;7394686;19;20019;-71
2023/09/01 04:32:09;;;;;;;6.75;1.65;;;16.10;21.80;;;;;;7394237;19;20541;-72
2023/09/01 04:34:39;;;;;;;2.30;1.65;;;16.10;20.90;;;;;;7393298;19;20014;-69
2023/09/01 04:37:12;;;;;;;3.85;2.17;;;16.10;19.00;;;;;;7394823;19;20022;-71
2023/09/01 04:39:42;;;;;;;3.13;1.40;;;16.10;19.80;;;;;;7392125;19;20014;-71
2023/09/01 04:42:12;;;;;;;2.55;1.50;;;16.00;20.50;;;;;;7394067;19;20026;-71
2023/09/01 04:44:42;;;;;;;2.85;1.60;;;16.00;20.30;;;;;;7393097;19;20010;-70
2023/09/01 04:47:12;;;;;;;3.17;1.77;;;16.00;19.20;;;;;;7395294;19;20573;-72
2023/09/01 04:49:45;;;;;;;3.15;1.63;;;16.00;20.20;;;;;;7393222;19;20014;-72
2023/09/01 04:52:18;;;;;;;2.65;1.60;;;16.00;22.00;;;;;;7393767;19;20014;-71
2023/09/01 04:54:58;;;;;;;2.67;1.42;;;16.00;20.50;;;;;;7392594;19;20010;-72
2023/09/01 04:57:30;;;;;;;3.95;2.03;;;16.10;21.80;;;;;;7393159;19;20044;-72
2023/09/01 05:00:00;;;;;;;2.97;1.77;;;16.10;20.80;;;;;;7389434;19;20019;-69
2023/09/01 05:02:30;;;;;;;3.67;1.75;;;16.20;20.00;;;;;;7393089;19;20040;-71
2023/09/01 05:05:00;;;;;;;1.92;1.50;;;16.20;16.30;;;;;;7392777;19;20015;-71
2023/09/01 05:07:33;;;;;;;2.85;1.60;;;16.30;14.90;;;;;;7391112;19;20046;-71
2023/09/01 05:10:03;;;;;;;2.80;1.42;;;16.40;13.40;;;;;;7391997;19;20095;-70
2023/09/01 05:12:34;;;;;;;3.70;1.75;;;16.40;13.10;;;;;;7393168;19;20014;-71
2023/09/01 05:15:04;;;;;;;3.75;1.70;;;16.50;11.80;;;;;;7392367;19;20021;-71
2023/09/01 05:17:34;;;;;;;4.10;1.50;;;16.50;10.10;;;;;;7393055;19;20128;-70
2023/09/01 05:20:07;;;;;;;3.08;1.67;;;17.00;1.00;;;;;;7391340;19;20019;-71
2023/09/01 05:22:41;;;;;;;4.50;1.77;;;16.80;2.10;;;;;;7392244;19;20482;-70
2023/09/01 05:25:11;;;;;;;4.57;1.52;;;16.70;6.00;;;;;;7392048;19;20485;-72
2023/09/01 05:27:41;;;;;;;2.63;1.38;;;16.70;7.00;;;;;;7391785;19;20014;-71
2023/09/01 05:30:12;;;;;;;2.03;1.25;;;16.70;7.30;;;;;;7391973;19;20022;-71
2023/09/01 05:32:42;;;;;;;2.72;1.42;;;16.70;9.30;;;;;;7391571;19;20022;-71
2023/09/01 05:35:12;;;;;;;3.78;1.40;;;16.70;12.00;;;;;;7391608;19;20014;-71
2023/09/01 05:37:45;;;;;;;2.53;1.30;;;16.70;15.20;;;;;;7392141;19;20014;-71
2023/09/01 05:40:17;;;;;;;2.05;1.27;;;16.70;16.30;;;;;;7390458;19;20025;-69
2023/09/01 05:42:46;;;;;;;3.05;1.40;;;16.70;18.20;;;;;;7391536;19;20090;-71
2023/09/01 05:45:16;;;;;;;1.88;1.63;;;16.70;21.40;;;;;;7391386;19;20028;-71
2023/09/01 05:47:46;;;;;;;4.32;1.60;;;16.60;25.50;;;;;;7396549;19;20023;-71
2023/09/01 05:50:18;;;;;;;4.72;1.60;;;16.60;30.80;;;;;;7389175;19;20047;-71
2023/09/01 05:52:50;;;;;;;2.83;1.70;;;16.60;31.40;;;;;;7390927;19;20046;-72
2023/09/01 05:55:20;;;;;;;2.22;1.50;;;16.60;39.00;;;;;;7389171;19;20073;-72
2023/09/01 05:57:50;;;;;;;2.15;1.63;;;16.60;43.50;;;;;;7389389;19;20018;-70
2023/09/01 06:00:21;;;;;;;2.78;1.50;;;16.60;50.20;;;;;;7389136;19;20041;-70
2023/09/01 06:02:51;;;;;;;3.00;1.67;;;16.50;55.30;;;;;;7390813;19;20014;-71
2023/09/01 06:05:21;;;;;;;4.20;1.95;;;16.50;71.30;;;;;;7389089;19;20068;-69
2023/09/01 06:07:54;;;;;;;2.97;1.92;;;16.40;91.90;;;;;;7390547;19;20027;-71
2023/09/01 06:10:24;;;;;;;3.88;1.98;;;16.30;94.70;;;;;;7388404;19;20022;-71
2023/09/01 06:12:54;;;;;;;4.07;1.70;;;16.30;99.40;;;;;;7390722;19;20494;-69
2023/09/01 06:15:26;;;;;;;4.28;2.03;;;16.30;99.90;;;;;;7390617;19;20085;-70
2023/09/01 06:17:56;;;;;;;3.92;1.80;;;16.30;99.90;;;;;;7390206;19;20027;-70
2023/09/01 06:20:28;;;;;;;4.85;1.65;;;16.30;99.90;;;;;;7389703;19;20392;-70
2023/09/01 06:23:00;;;;;;;4.15;1.90;;;16.30;99.90;;;;;;7389838;19;20024;-70
2023/09/01 06:25:30;;;;;;;4.80;1.90;;;16.30;99.90;;;;;;7390043;19;20018;-70
2023/09/01 06:28:00;;;;;;;4.05;2.00;;;16.20;99.90;;;;;;7390406;19;20673;-69
2023/09/01 06:30:30;;;;;;;3.28;1.98;;;16.20;99.90;;;;;;7389284;19;20031;-70
2023/09/01 06:33:00;;;;;;;5.50;2.33;;;16.10;99.90;;;;;;7389994;19;20018;-69
2023/09/01 06:35:30;;;;;;;5.25;2.05;;;16.10;99.90;;;;;;7389574;19;20035;-70
2023/09/01 06:38:05;;;;;;;4.97;2.05;;;16.10;99.90;;;;;;7389740;19;20494;-70
2023/09/01 06:40:35;;;;;;;4.68;1.98;;;16.00;99.90;;;;;;7388708;19;20094;-70
2023/09/01 06:43:05;;;;;;;3.42;1.80;;;16.00;99.90;;;;;;7389551;19;20014;-69
2023/09/01 06:45:35;;;;;;;5.18;2.45;;;16.00;99.90;;;;;;7386363;19;20022;-70
2023/09/01 06:48:06;;;;;;;7.95;2.50;;;16.10;99.90;;;;;;7387778;19;20019;-70
2023/09/01 06:50:36;;;;;;;4.82;2.45;;;16.10;99.90;;;;;;7386947;19;20006;-69
2023/09/01 06:53:09;;;;;;;6.03;2.72;;;16.10;99.90;;;;;;7388975;19;20773;-70
2023/09/01 06:55:39;;;;;;;5.53;2.80;;;16.20;99.90;;;;;;7388673;19;20014;-69
2023/09/01 06:58:10;;;;;;;6.93;2.90;;;16.30;99.90;;;;;;7387225;19;20022;-69
2023/09/01 07:00:40;;;;;;;4.60;2.35;;;16.30;99.90;;;;;;7387763;19;20412;-70
2023/09/01 07:03:10;;;;;;;6.68;3.17;;;16.40;99.90;;;;;;7389125;19;20047;-70
2023/09/01 07:05:40;;;;;;;2.85;2.10;;;16.50;99.90;;;;;;7387980;19;20022;-70
2023/09/01 07:08:14;;;;;;;3.90;2.38;;;16.50;99.90;;;;;;7388097;19;20017;-70
2023/09/01 07:10:44;;;;;;;;;;;16.60;99.90;;;;;;7388190;19;20035;-70
2023/09/01 07:13:14;;;;;;;2.75;2.00;;;16.70;99.90;;;;;;7388471;19;19915;-70
2023/09/01 07:15:50;;;;;;;3.47;2.05;;;16.70;99.90;;;;;;7387606;19;20025;-70
2023/09/01 07:18:21;;;;;;;4.35;2.28;;;16.70;99.90;;;;;;7387583;19;20050;-70
2023/09/01 07:20:53;;;;;;;3.38;1.98;;;16.80;99.90;;;;;;7384853;19;20022;-69
2023/09/01 07:23:25;;;;;;;3.80;1.85;;;16.80;99.90;;;;;;7384575;19;20035;-70
2023/09/01 07:25:55;;;;;;;4.30;1.95;;;16.80;99.90;;;;;;7387060;19;20019;-70
2023/09/01 07:28:25;;;;;;;4.55;2.15;;;16.90;99.90;;;;;;7387205;19;20074;-68
2023/09/01 07:30:55;;;;;;;2.97;1.77;;;16.80;99.90;;;;;;7385565;19;20493;-68
2023/09/01 07:33:28;;;;;;;5.80;2.00;;;16.80;99.90;;;;;;7386004;19;20022;-69
2023/09/01 07:35:58;;;;;;;4.75;1.98;;;16.80;99.90;;;;;;7385462;19;20018;-69
2023/09/01 07:38:30;;;;;;;2.00;1.52;;;16.80;99.90;;;;;;7385231;19;20235;-70
2023/09/01 07:41:00;;;;;;;4.28;1.63;;;16.90;99.90;;;;;;7385529;19;20021;-70
2023/09/01 07:43:30;;;;;;;3.03;1.80;;;17.00;99.90;;;;;;7387254;19;20025;-70
2023/09/01 07:46:00;;;;;;;4.78;2.05;;;17.10;99.90;;;;;;7388653;19;20080;-70
2023/09/01 07:48:30;;;;;;;2.83;1.83;;;17.20;99.90;;;;;;7387133;19;20015;-71
2023/09/01 07:51:01;;;;;;;4.00;1.60;;;17.30;99.90;;;;;;7386221;19;20503;-69
2023/09/01 07:53:33;;;;;;;3.08;1.58;;;17.30;99.90;;;;;;7387788;19;20031;-71
2023/09/01 07:56:04;;;;;;;3.58;1.40;;;17.40;99.90;;;;;;7387884;19;20023;-71
2023/09/01 07:58:34;;;;;;;5.13;1.60;;;17.50;99.90;;;;;;7386659;19;20015;-70
2023/09/01 08:01:05;;;;;;;3.42;1.52;;;17.50;99.90;;;;;;7385729;19;20014;-72
2023/09/01 08:03:40;;;;;;;3.50;2.10;;;17.60;99.90;;;;;;7387010;19;20007;-74
2023/09/01 08:06:10;;;;;;;3.38;1.92;;;17.60;99.90;;;;;;7387396;19;20121;-70
2023/09/01 08:08:43;;;;;;;2.85;1.30;;;17.70;99.90;;;;;;7386915;19;20035;-70
2023/09/01 08:11:13;;;;;;;3.40;1.60;;;17.80;99.90;;;;;;7385632;19;20018;-71
2023/09/01 08:13:42;;;;;;;1.90;1.58;;;17.80;99.90;;;;;;7385850;19;20010;-70
2023/09/01 08:16:13;;;;;;;3.60;1.60;;;17.80;99.90;;;;;;7398461;19;20104;-70
2023/09/01 08:18:43;;;;;;;5.13;2.80;;;18.00;99.90;;;;;;7397958;19;20369;-70
2023/09/01 08:21:13;;;;;;;3.53;2.17;;;18.10;99.90;;;;;;7393775;19;20028;-70
2023/09/01 08:23:47;;;;;;;5.60;2.03;;;18.40;99.90;;;;;;7397730;19;20010;-70
2023/09/01 08:26:18;;;;;;;5.32;1.98;;;18.60;99.90;;;;;;7398035;19;20014;-71
2023/09/01 08:28:47;;;;;;;5.07;1.88;;;18.80;98.40;;;;;;7397773;19;20014;-70
2023/09/01 08:31:17;;;;;;;3.17;1.85;;;19.10;99.90;;;;;;7396038;19;20035;-72
2023/09/01 08:33:47;;;;;;;3.53;2.00;;;19.10;82.60;;;;;;7397695;19;20091;-71
2023/09/01 08:36:17;;;;;;;2.72;1.92;;;19.20;55.70;;;;;;7395796;19;20015;-70
2023/09/01 08:38:50;;;;;;;4.55;1.92;;;19.30;49.60;;;;;;7398225;19;20010;-70
2023/09/01 08:41:20;;;;;;;4.00;2.08;;;19.70;57.60;;;;;;7395122;19;20015;-70
2023/09/01 08:43:53;;;;;;;4.00;2.00;;;19.60;43.10;;;;;;7395988;19;20010;-70
2023/09/01 08:46:24;;;;;;;3.15;1.77;;;19.60;39.70;;;;;;7397555;19;20010;-70
2023/09/01 08:48:55;;;;;;;6.25;1.95;;;19.60;45.80;;;;;;7396830;19;20018;-71
2023/09/01 08:51:27;;;;;;;2.65;1.63;;;19.70;46.80;;;;;;7395585;19;20015;-70
2023/09/01 08:53:59;;;;;;;3.53;1.30;;;19.70;50.30;;;;;;7394575;19;20010;-70
2023/09/01 08:56:32;;;;;;;2.53;1.17;;;19.90;32.80;;;;;;7397782;19;20007;-71
2023/09/01 08:59:02;;;;;;;4.53;3.20;;;20.00;18.30;;;;;;7396136;19;20007;-70
2023/09/01 09:01:32;;;;;;;4.72;2.72;;;20.30;16.20;;;;;;7392697;19;20536;-71
2023/09/01 09:04:03;;;;;;;2.38;1.50;;;20.70;16.30;;;;;;7396438;19;20025;-70
2023/09/01 09:06:34;;;;;;;6.28;1.92;;;20.80;7.10;;;;;;7396603;19;20132;-70
2023/09/01 09:09:14;;;;;;;4.68;2.00;;;20.80;10.10;;;;;;7396658;19;20023;-71
2023/09/01 09:11:57;;;;;;;3.03;1.60;;;20.40;11.20;;;;;;7394058;19;20151;-70
2023/09/01 09:14:29;;;;;;;3.47;1.48;;;20.70;17.70;;;;;;7396092;19;20023;-71
2023/09/01 09:17:02;;;;;;;2.53;1.48;;;20.80;6.80;;;;;;7395731;19;20027;-70
2023/09/01 09:19:32;;;;;;;2.38;1.50;;;20.80;3.00;;;;;;7395942;19;20006;-71
2023/09/01 09:22:11;;;;;;;2.17;1.23;;;21.20;2.50;;;;;;7396186;19;20018;-70
2023/09/01 09:24:44;;;;;;;4.38;1.40;;;20.90;1.00;;;;;;7394169;19;20010;-70
2023/09/01 09:27:17;;;;;;;1.27;1.00;;;21.00;1.00;;;;;;7392575;19;20014;-72
2023/09/01 09:29:48;;;;;;;3.15;1.40;;;21.00;1.00;;;;;;7395140;19;20018;-71
2023/09/01 09:32:19;;;;;;;3.47;1.58;;;21.00;1.00;;;;;;7394262;19;20015;-70
2023/09/01 09:35:08;;;;;;;2.08;1.10;;;21.20;1.00;;;;;;7394075;19;20010;-70
2023/09/01 09:37:39;;;;;;;4.28;1.45;;;21.00;1.00;;;;;;7394049;19;20007;-71
2023/09/01 09:40:17;;;;;;;2.85;1.27;;;21.20;1.00;;;;;;7394474;19;20014;-71
2023/09/01 09:42:48;;;;;;;2.38;0.90;;;21.30;1.00;;;;;;7394336;19;20024;-72
2023/09/01 09:45:27;;;;;;;1.52;0.50;;;21.30;1.00;;;;;;7393716;19;20011;-71
2023/09/01 09:48:01;;;;;;;0.85;0.40;;;21.20;1.00;;;;;;7395259;19;20006;-71
2023/09/01 09:50:32;;;;;;;0.77;0.30;;;21.20;1.00;;;;;;7393924;19;20493;-71
2023/09/01 09:53:04;;;;;;;0.88;0.38;;;21.20;1.00;;;;;;7395151;19;20484;-71
2023/09/01 09:55:42;;;;;;;0.77;0.47;;;21.10;1.00;;;;;;7394577;19;20047;-70
2023/09/01 09:58:13;;;;;;;1.33;0.22;;;21.00;1.00;;;;;;7394791;19;20648;-72
2023/09/01 10:00:53;;;;;;;1.00;0.55;;;21.00;1.00;;;;;;7393787;19;20751;-70
2023/09/01 10:03:25;;;;;;;0.70;0.40;;;21.00;1.00;;;;;;7393530;19;20078;-71
2023/09/01 10:05:57;;;;;;;1.25;0.70;;;20.80;1.00;;;;;;7394986;19;20006;-70
2023/09/01 10:08:27;;;;;;;2.17;0.63;;;20.80;1.00;;;;;;7394295;19;20014;-71
2023/09/01 10:11:04;;;;;;;1.08;0.60;;;20.80;1.00;;;;;;7393376;19;20485;-70
2023/09/01 10:13:34;;;;;;;0.82;0.60;;;20.80;1.00;;;;;;7394540;19;20083;-71
2023/09/01 10:16:06;;;;;;;1.00;0.70;;;20.70;1.00;;;;;;7394605;19;20018;-70
2023/09/01 10:18:37;;;;;;;3.58;0.73;;;20.50;1.00;;;;;;7394110;19;20010;-70
2023/09/01 10:21:07;;;;;;;1.15;0.70;;;20.50;1.00;;;;;;7392648;19;20421;-72
2023/09/01 10:23:37;;;;;;;1.92;1.02;;;20.60;1.00;;;;;;7392428;19;20466;-70
2023/09/01 10:26:24;;;;;;;1.65;0.60;;;20.40;3.30;;;;;;7393736;19;20007;-71
2023/09/01 10:28:56;;;;;;;0.90;0.60;;;20.40;1.70;;;;;;7393755;19;20014;-71
2023/09/01 10:31:27;;;;;;;1.17;0.60;;;20.20;1.00;;;;;;7390650;19;20014;-71
2023/09/01 10:34:07;;;;;;;1.33;0.90;;;20.50;1.00;;;;;;7393465;19;20034;-71
2023/09/01 10:36:38;;;;;;;1.35;0.80;;;20.60;1.70;;;;;;7392674;19;20006;-70
2023/09/01 10:39:32;;;;;;;2.03;0.63;;;20.60;1.00;;;;;;7392780;19;20538;-71
2023/09/01 10:42:07;;;;;;;2.22;1.05;;;20.80;1.00;;;;;;7393769;19;20010;-71
2023/09/01 10:45:08;;;;;;;3.40;0.68;;;20.90;1.00;;;;;;7391549;19;20023;-71
2023/09/01 10:47:52;;;;;;;0.73;0.60;;;21.00;1.00;;;;;;7391627;19;20018;-71
2023/09/01 10:50:23;;;;;;;1.75;0.75;;;21.20;1.00;;;;;;7392437;19;20074;-71
2023/09/01 10:53:29;;;;;;;1.00;0.70;;;21.20;1.00;;;;;;7393101;19;20015;-71
2023/09/01 10:56:10;;;;;;;1.40;0.60;;;21.30;1.00;;;;;;7392531;19;20018;-71
2023/09/01 10:58:47;;;;;;;2.10;0.70;;;21.50;1.00;;;;;;7393611;19;20014;-71
2023/09/01 11:01:36;;;;;;;1.45;0.88;;;21.40;1.00;;;;;;7391725;19;20093;-71
2023/09/01 11:04:33;;;;;;;1.13;0.85;;;21.40;1.00;;;;;;7391417;19;20010;-70
2023/09/01 11:07:03;;;;;;;1.55;0.60;;;21.70;1.00;;;;;;7393211;19;20890;-70
2023/09/01 11:10:03;;;;;;;1.63;0.80;;;21.60;1.00;;;;;;7392963;19;20019;-70
2023/09/01 11:12:32;;;;;;;1.60;0.98;;;21.40;1.00;;;;;;7392934;19;20011;-71
2023/09/01 11:15:09;;;;;;;2.08;0.88;;;21.80;1.00;;;;;;7392600;19;20142;-71
2023/09/01 11:17:45;;;;;;;2.40;1.08;;;21.80;1.00;;;;;;7392601;19;20035;-70
2023/09/01 11:20:19;;;;;;;1.75;1.05;;;22.00;1.00;;;;;;7392335;19;20346;-70
2023/09/01 11:22:49;;;;;;;1.27;0.98;;;22.20;1.00;;;;;;7390513;19;20469;-71
2023/09/01 11:25:20;;;;;;;1.30;1.00;;;22.20;1.00;;;;;;7391296;19;20353;-70
2023/09/01 11:27:53;;;;;;;1.27;0.82;;;22.10;1.00;;;;;;7392329;19;20445;-71
2023/09/01 11:30:26;;;;;;;3.22;1.15;;;22.20;1.00;;;;;;7391946;19;20014;-70
2023/09/01 11:32:56;;;;;;;2.00;1.40;;;22.50;1.00;;;;;;7392899;19;20070;-70
2023/09/01 11:35:27;;;;;;;1.58;0.93;;;22.90;1.00;;;;;;7392149;19;20073;-70
2023/09/01 11:37:59;;;;;;;2.30;1.20;;;23.20;1.00;;;;;;7393300;19;20010;-71
2023/09/01 11:40:33;;;;;;;1.55;1.05;;;23.00;1.00;;;;;;7391619;19;20007;-71
2023/09/01 11:43:03;;;;;;;1.15;0.85;;;23.10;1.00;;;;;;7392719;19;20022;-70
2023/09/01 11:45:36;;;;;;;3.13;0.90;;;23.20;1.00;;;;;;7389435;19;20018;-70
2023/09/01 11:48:07;;;;;;;1.00;0.77;;;23.30;1.00;;;;;;7392321;19;20078;-70
2023/09/01 11:50:39;;;;;;;1.67;0.82;;;23.40;1.00;;;;;;7397491;19;20018;-70
2023/09/01 11:53:09;;;;;;;1.38;0.90;;;23.60;1.00;;;;;;7398058;19;20014;-71
2023/09/01 11:55:43;;;;;;;2.53;0.80;;;23.70;1.00;;;;;;7398490;19;20024;-70
2023/09/01 11:58:13;;;;;;;1.80;1.00;;;23.60;1.00;;;;;;7398573;19;20027;-71
2023/09/01 12:00:46;;;;;;;1.50;0.88;;;23.80;1.00;;;;;;7398206;19;20027;-69
2023/09/01 12:03:22;;;;;;;1.95;0.77;;;23.50;1.00;;;;;;7399453;19;20014;-69
2023/09/01 12:05:52;;;;;;;2.25;0.95;;;23.70;1.00;;;;;;7398389;19;20014;-71
2023/09/01 12:08:26;;;;;;;1.67;0.80;;;23.70;1.00;;;;;;7398763;19;20100;-71
2023/09/01 12:11:07;;;;;;;2.08;1.55;;;24.10;1.00;;;;;;7397353;19;20375;-70
2023/09/01 12:13:37;;;;;;;2.13;0.90;;;24.10;1.00;;;;;;7398560;19;20461;-71
2023/09/01 12:16:09;;;;;;;1.23;0.80;;;24.30;1.00;;;;;;7398043;19;20014;-70
2023/09/01 12:18:41;;;;;;;4.03;1.00;;;24.40;1.00;;;;;;7398785;19;20463;-71
2023/09/01 12:21:12;;;;;;;6.25;3.67;;;24.40;1.00;;;;;;7399156;19;20038;-70
2023/09/01 12:23:44;;;;;;;2.28;1.10;;;24.50;1.00;;;;;;7398562;19;20589;-69
2023/09/01 12:26:15;;;;;;;1.55;0.82;;;24.60;1.00;;;;;;7399216;19;20021;-70
2023/09/01 12:28:46;;;;;;;1.50;0.82;;;24.60;1.00;;;;;;7398530;19;20014;-71
2023/09/01 12:31:18;;;;;;;1.05;0.80;;;24.20;1.00;;;;;;7396823;19;20010;-71
2023/09/01 12:33:48;;;;;;;2.40;0.60;;;23.80;1.00;;;;;;7397605;19;20010;-71
2023/09/01 12:36:18;;;;;;;4.38;0.85;;;23.60;1.00;;;;;;7398058;19;20122;-71
2023/09/01 12:38:48;;;;;;;2.88;0.95;;;23.40;1.00;;;;;;7397680;19;20399;-71
2023/09/01 12:41:18;;;;;;;2.85;0.90;;;23.30;1.00;;;;;;7396346;19;20021;-72
2023/09/01 12:43:48;;;;;;;1.20;0.82;;;23.20;1.00;;;;;;7392821;19;20480;-69
2023/09/01 12:46:21;;;;;;;2.78;1.00;;;23.30;1.00;;;;;;7397722;19;20028;-70
2023/09/01 12:48:51;;;;;;;1.75;0.95;;;23.30;1.00;;;;;;7391654;19;20014;-71
2023/09/01 12:51:21;;;;;;;2.22;0.88;;;23.20;1.00;;;;;;7391955;19;20340;-71
2023/09/01 12:53:52;;;;;;;1.20;0.73;;;23.20;1.00;;;;;;7393199;19;20479;-71
2023/09/01 12:56:22;;;;;;;1.48;0.95;;;23.10;1.00;;;;;;7393894;19;20019;-69
2023/09/01 12:58:52;;;;;;;3.78;1.05;;;22.70;1.00;;;;;;7393334;19;20305;-71
2023/09/01 13:01:25;;;;;;;3.47;0.80;;;22.70;1.00;;;;;;7391095;19;20458;-71
2023/09/01 13:03:55;;;;;;;0.88;0.70;;;22.60;1.00;;;;;;7392965;19;20035;-71
2023/09/01 13:06:25;;;;;;;2.05;0.90;;;22.90;1.00;;;;;;7390628;19;20026;-69
2023/09/01 13:08:54;;;;;;;3.72;1.08;;;23.00;1.00;;;;;;7392492;19;20528;-71
2023/09/01 13:11:24;;;;;;;2.30;0.90;;;23.00;1.00;;;;;;7389870;19;20014;-71
2023/09/01 13:13:54;;;;;;;1.83;1.05;;;23.20;1.00;;;;;;7390387;19;20423;-71
2023/09/01 13:16:32;;;;;;;2.70;0.70;;;23.10;1.00;;;;;;7392776;19;20024;-70